Time;durP1;ratioP1;P1;durP2;ratioP2;P2;SDS_P1;SDS_P2;PMS_P1;PMS_P2;Temp;Humidity;BMP_temperature;BMP_pressure;BME280_temperature;BME280_humidity;BME280_pressure;Samples;Min_cycle;Max_cycle;Signal;HPM_P1;HPM_P2
2022/04/05 00:02:23;;;;;;;3.00;2.70;;;18.30;35.90;;;;;;6189983;23;20203;-69
2022/04/05 00:04:50;;;;;;;2.97;2.78;;;18.30;36.10;;;;;;6190155;23;20175;-69
2022/04/05 00:07:19;;;;;;;3.13;2.85;;;18.30;36.10;;;;;;6190051;23;20187;-69
2022/04/05 00:09:46;;;;;;;2.53;2.33;;;18.20;36.00;;;;;;6216354;23;20168;-69
2022/04/05 00:12:13;;;;;;;3.13;2.90;;;18.20;36.10;;;;;;6189923;23;20195;-69
2022/04/05 00:14:40;;;;;;;2.60;2.40;;;18.20;36.10;;;;;;6190438;23;20174;-69
2022/04/05 00:17:07;;;;;;;2.92;2.72;;;18.20;36.60;;;;;;6216210;23;20162;-69
2022/04/05 00:19:34;;;;;;;3.00;2.70;;;18.20;37.00;;;;;;6189521;23;20168;-69
2022/04/05 00:22:01;;;;;;;2.88;2.67;;;18.20;36.30;;;;;;6216103;23;20262;-69
2022/04/05 00:24:30;;;;;;;2.80;2.60;;;18.20;36.40;;;;;;6189640;23;20591;-69
2022/04/05 00:26:57;;;;;;;2.80;2.60;;;18.10;36.20;;;;;;6216442;23;20179;-69
2022/04/05 00:29:25;;;;;;;2.50;2.30;;;18.20;36.20;;;;;;6189942;23;20168;-69
2022/04/05 00:31:52;;;;;;;3.13;2.83;;;18.10;36.40;;;;;;6215909;23;20187;-69
2022/04/05 00:34:24;;;;;;;3.00;2.80;;;18.10;36.40;;;;;;6189556;23;20176;-69
2022/04/05 00:36:52;;;;;;;2.70;2.50;;;18.10;36.80;;;;;;6189512;23;20654;-69
2022/04/05 00:39:20;;;;;;;2.80;2.60;;;18.10;37.10;;;;;;6189404;23;20179;-69
2022/04/05 00:41:49;;;;;;;4.70;2.50;;;18.10;36.50;;;;;;6215905;23;20187;-69
2022/04/05 00:44:16;;;;;;;2.10;2.00;;;18.10;36.50;;;;;;6189678;23;20171;-69
2022/04/05 00:46:43;;;;;;;2.80;2.60;;;18.00;36.80;;;;;;6193072;23;20266;-69
2022/04/05 00:49:10;;;;;;;3.35;2.97;;;18.00;36.50;;;;;;6190576;23;20513;-69
2022/04/05 00:51:38;;;;;;;3.05;2.80;;;18.00;36.50;;;;;;6189406;23;20195;-68
2022/04/05 00:54:06;;;;;;;3.17;2.80;;;18.00;36.50;;;;;;6189893;23;20200;-69
2022/04/05 00:56:36;;;;;;;2.83;2.60;;;18.00;36.40;;;;;;6216261;23;20168;-69
2022/04/05 00:59:06;;;;;;;2.80;2.60;;;18.00;36.70;;;;;;6189572;23;20175;-70
2022/04/05 01:01:34;;;;;;;3.10;2.80;;;18.00;36.80;;;;;;6189227;23;20518;-69
2022/04/05 01:04:01;;;;;;;2.63;2.42;;;17.90;36.50;;;;;;6189428;23;20495;-69
2022/04/05 01:06:30;;;;;;;2.78;2.58;;;17.90;36.80;;;;;;6189311;23;20719;-69
2022/04/05 01:08:57;;;;;;;2.53;2.33;;;18.00;36.60;;;;;;6216001;23;20226;-69
2022/04/05 01:11:25;;;;;;;2.80;2.60;;;17.90;37.10;;;;;;6189916;23;20191;-69
2022/04/05 01:13:53;;;;;;;2.92;2.67;;;17.90;36.90;;;;;;6189313;23;20179;-69
2022/04/05 01:16:21;;;;;;;2.70;2.50;;;17.90;36.80;;;;;;6189404;23;20172;-69
2022/04/05 01:18:49;;;;;;;2.85;2.58;;;17.90;36.90;;;;;;6189146;23;20179;-69
2022/04/05 01:21:16;;;;;;;2.70;2.50;;;17.90;37.10;;;;;;6188969;23;20250;-69
2022/04/05 01:24:00;;;;;;;3.20;2.67;;;17.90;36.80;;;;;;6189395;23;20285;-68
2022/04/05 01:26:27;;;;;;;2.65;2.45;;;17.90;37.20;;;;;;6215860;23;20187;-69
2022/04/05 01:28:54;;;;;;;2.78;2.58;;;17.90;37.10;;;;;;6189710;23;20171;-69
2022/04/05 01:31:21;;;;;;;2.55;2.35;;;17.80;36.90;;;;;;6215653;23;20183;-69
2022/04/05 01:33:48;;;;;;;2.78;2.58;;;17.80;36.90;;;;;;6189174;23;20171;-69
2022/04/05 01:36:21;;;;;;;2.53;2.33;;;17.80;37.10;;;;;;6215966;23;20160;-68
2022/04/05 01:38:50;;;;;;;2.90;2.70;;;17.80;37.00;;;;;;6188932;23;20164;-69
2022/04/05 01:41:17;;;;;;;2.60;2.40;;;17.80;37.10;;;;;;6188943;23;20278;-69
2022/04/05 01:43:44;;;;;;;2.92;2.72;;;17.80;37.10;;;;;;6215832;23;20164;-69
2022/04/05 01:46:11;;;;;;;2.78;2.58;;;17.80;37.10;;;;;;6188872;23;20261;-69
2022/04/05 01:48:39;;;;;;;2.88;2.42;;;17.80;37.10;;;;;;6188879;23;20211;-69
2022/04/05 01:51:07;;;;;;;2.67;2.47;;;17.80;37.30;;;;;;6188871;23;20203;-68
2022/04/05 01:53:34;;;;;;;2.70;2.50;;;17.80;37.60;;;;;;6216067;23;20195;-69
2022/04/05 01:56:03;;;;;;;2.53;2.33;;;17.80;37.20;;;;;;6215445;23;20238;-69
2022/04/05 01:58:30;;;;;;;2.75;2.55;;;17.70;37.30;;;;;;6216215;23;20167;-69
2022/04/05 02:01:00;;;;;;;3.10;2.80;;;17.80;37.20;;;;;;6217348;23;20199;-70
2022/04/05 02:03:27;;;;;;;2.83;2.63;;;17.70;37.20;;;;;;6191235;23;20167;-69
2022/04/05 02:05:54;;;;;;;2.85;2.65;;;17.70;37.20;;;;;;6190666;23;20199;-69
2022/04/05 02:08:23;;;;;;;2.72;2.53;;;17.70;37.40;;;;;;6217382;23;20168;-69
2022/04/05 02:10:50;;;;;;;2.45;2.25;;;17.70;37.50;;;;;;6190849;23;20506;-69
2022/04/05 02:13:20;;;;;;;2.40;2.20;;;17.70;37.50;;;;;;6191138;23;20254;-69
2022/04/05 02:15:53;;;;;;;2.63;2.42;;;17.70;37.60;;;;;;6190902;23;20182;-69
2022/04/05 02:18:20;;;;;;;3.53;2.72;;;17.70;37.80;;;;;;6191425;23;20171;-69
2022/04/05 02:20:51;;;;;;;2.97;2.60;;;17.70;37.70;;;;;;6191055;23;20176;-70
2022/04/05 02:23:22;;;;;;;2.45;2.30;;;17.70;37.60;;;;;;6197561;22;20206;-68
2022/04/05 02:26:16;;;;;;;2.53;2.33;;;17.70;37.90;;;;;;6242300;23;20190;-68
2022/04/05 02:28:50;;;;;;;2.75;2.55;;;17.60;37.60;;;;;;6221538;23;20213;-68
2022/04/05 02:31:21;;;;;;;3.13;2.83;;;17.60;37.70;;;;;;6213384;23;20187;-68
2022/04/05 02:33:51;;;;;;;2.60;2.40;;;17.60;37.80;;;;;;6190970;23;20176;-68
2022/04/05 02:36:26;;;;;;;2.85;2.65;;;17.60;37.80;;;;;;6190644;23;20159;-68
2022/04/05 02:38:56;;;;;;;2.70;2.50;;;17.60;37.80;;;;;;6190553;23;20176;-68
2022/04/05 02:41:24;;;;;;;3.17;2.88;;;17.60;38.00;;;;;;6191680;23;20578;-68
2022/04/05 02:43:54;;;;;;;2.90;2.60;;;17.60;37.80;;;;;;6190759;23;20179;-68
2022/04/05 02:46:22;;;;;;;3.00;2.80;;;17.50;37.90;;;;;;6190448;23;20667;-68
2022/04/05 02:48:54;;;;;;;2.80;2.60;;;17.50;37.70;;;;;;6190470;23;20249;-68
2022/04/05 02:51:34;;;;;;;2.90;2.70;;;17.50;37.60;;;;;;6190212;23;20215;-68
2022/04/05 02:54:06;;;;;;;2.78;2.58;;;17.50;37.80;;;;;;6190339;23;20181;-67
2022/04/05 02:56:36;;;;;;;2.80;2.60;;;17.50;37.80;;;;;;6190517;23;20638;-68
2022/04/05 02:59:05;;;;;;;3.08;2.78;;;17.50;38.00;;;;;;6191860;23;20222;-68
2022/04/05 03:01:32;;;;;;;2.22;2.13;;;17.50;37.80;;;;;;6190122;23;20202;-68
2022/04/05 03:04:05;;;;;;;3.10;2.90;;;17.50;37.80;;;;;;6190334;23;20565;-68
2022/04/05 03:06:33;;;;;;;2.90;2.70;;;17.50;38.00;;;;;;6190026;23;20270;-68
2022/04/05 03:09:01;;;;;;;2.80;2.60;;;17.40;37.90;;;;;;6216749;23;20177;-68
2022/04/05 03:11:31;;;;;;;3.10;2.90;;;17.40;38.00;;;;;;6190055;23;20187;-68
2022/04/05 03:13:58;;;;;;;2.60;2.40;;;17.40;38.60;;;;;;6190364;23;20175;-68
2022/04/05 03:16:29;;;;;;;2.95;2.75;;;17.40;38.30;;;;;;6190480;23;20202;-68
2022/04/05 03:18:59;;;;;;;3.22;2.70;;;17.40;38.10;;;;;;6191076;23;20163;-68
2022/04/05 03:21:28;;;;;;;2.67;2.47;;;17.40;38.20;;;;;;6189921;23;20211;-68
2022/04/05 03:23:55;;;;;;;3.17;2.97;;;17.40;38.20;;;;;;6190274;23;20665;-68
2022/04/05 03:26:22;;;;;;;2.45;2.30;;;17.40;38.30;;;;;;6190572;23;20175;-67
2022/04/05 03:28:49;;;;;;;3.08;2.58;;;17.40;38.40;;;;;;6189884;23;20255;-68
2022/04/05 03:31:17;;;;;;;2.42;2.25;;;17.40;38.50;;;;;;6189954;23;20262;-68
2022/04/05 03:33:49;;;;;;;3.08;2.60;;;17.40;38.50;;;;;;6189958;23;20164;-68
2022/04/05 03:36:17;;;;;;;2.70;2.50;;;17.40;38.60;;;;;;6190298;23;20179;-68
2022/04/05 03:38:44;;;;;;;2.58;2.38;;;17.40;38.60;;;;;;6216423;23;20198;-68
2022/04/05 03:41:14;;;;;;;2.60;2.40;;;17.40;38.50;;;;;;6190205;23;20701;-68
2022/04/05 03:43:43;;;;;;;2.47;2.35;;;17.40;38.70;;;;;;6189943;23;20254;-67
2022/04/05 03:46:15;;;;;;;2.70;2.50;;;17.40;38.60;;;;;;6189767;23;20168;-68
2022/04/05 03:48:43;;;;;;;2.72;2.53;;;17.40;38.40;;;;;;6189795;23;20220;-68
2022/04/05 03:51:14;;;;;;;3.08;2.83;;;17.40;38.40;;;;;;6189770;23;20665;-68
2022/04/05 03:53:51;;;;;;;2.88;2.38;;;17.50;38.60;;;;;;6190878;23;20172;-68
2022/04/05 03:56:20;;;;;;;2.90;2.70;;;17.40;38.60;;;;;;6189729;23;20175;-68
2022/04/05 03:58:49;;;;;;;2.47;2.30;;;17.50;38.60;;;;;;6189678;23;20180;-68
2022/04/05 04:01:17;;;;;;;3.30;2.60;;;17.40;38.50;;;;;;6189396;23;20649;-68
2022/04/05 04:03:45;;;;;;;3.03;2.83;;;17.50;38.50;;;;;;6189682;23;20250;-68
2022/04/05 04:06:14;;;;;;;2.80;2.60;;;17.40;38.50;;;;;;6189917;23;20180;-68
2022/04/05 04:08:41;;;;;;;2.75;2.55;;;17.50;38.60;;;;;;6189982;23;20198;-68
2022/04/05 04:11:08;;;;;;;2.88;2.67;;;17.50;38.60;;;;;;6190271;23;20270;-68
2022/04/05 04:13:36;;;;;;;2.45;2.25;;;17.50;38.50;;;;;;6194699;22;20201;-65
2022/04/05 04:16:06;;;;;;;2.83;2.63;;;17.50;39.10;;;;;;6190009;23;20202;-64
2022/04/05 04:18:36;;;;;;;3.00;2.80;;;17.50;38.50;;;;;;6189830;23;20168;-64
2022/04/05 04:21:03;;;;;;;2.58;2.38;;;17.50;38.50;;;;;;6189995;23;20187;-67
2022/04/05 04:23:32;;;;;;;2.45;2.35;;;17.50;38.40;;;;;;6190183;23;20672;-67
2022/04/05 04:26:00;;;;;;;2.97;2.60;;;17.50;38.40;;;;;;6189716;23;20569;-67
2022/04/05 04:28:28;;;;;;;2.70;2.50;;;17.50;38.30;;;;;;6189600;23;20294;-67
2022/04/05 04:30:57;;;;;;;2.60;2.40;;;17.50;38.30;;;;;;6189542;23;20182;-67
2022/04/05 04:33:24;;;;;;;2.72;2.53;;;17.60;38.30;;;;;;6189330;23;20192;-67
2022/04/05 04:35:52;;;;;;;3.20;2.92;;;17.60;38.10;;;;;;6189608;23;20176;-67
2022/04/05 04:38:19;;;;;;;2.72;2.53;;;17.60;38.10;;;;;;6189410;23;20481;-67
2022/04/05 04:40:48;;;;;;;3.20;2.90;;;17.70;38.10;;;;;;6203827;22;20671;-70
2022/04/05 04:43:16;;;;;;;3.05;2.85;;;17.70;38.30;;;;;;6207451;23;20245;-70
2022/04/05 04:45:42;;;;;;;3.63;3.33;;;17.70;38.10;;;;;;6220732;23;20681;-70
2022/04/05 04:48:09;;;;;;;4.30;2.85;;;17.70;39.10;;;;;;6220309;23;20222;-71
2022/04/05 04:50:36;;;;;;;3.85;2.92;;;17.80;38.50;;;;;;6220552;23;20257;-71
2022/04/05 04:53:04;;;;;;;3.05;2.85;;;17.70;38.40;;;;;;6220351;23;20214;-70
2022/04/05 04:55:32;;;;;;;3.40;3.10;;;17.80;38.80;;;;;;6220900;23;20177;-70
2022/04/05 04:58:01;;;;;;;3.05;2.85;;;17.80;38.30;;;;;;6220449;23;20553;-70
2022/04/05 05:00:27;;;;;;;2.90;2.70;;;17.80;38.40;;;;;;6220717;23;20171;-71
2022/04/05 05:02:55;;;;;;;2.83;2.63;;;17.80;38.40;;;;;;6220550;23;20195;-72
2022/04/05 05:05:22;;;;;;;2.72;2.53;;;17.80;38.30;;;;;;6220442;23;20614;-70
2022/04/05 05:07:50;;;;;;;2.65;2.45;;;17.90;38.30;;;;;;6220672;23;20199;-71
2022/04/05 05:10:17;;;;;;;3.90;2.95;;;17.90;38.50;;;;;;6220656;23;20314;-71
2022/04/05 05:12:45;;;;;;;2.85;2.60;;;17.90;38.20;;;;;;6221389;23;20674;-71
2022/04/05 05:15:18;;;;;;;2.65;2.45;;;17.90;38.50;;;;;;6221003;23;20174;-70
2022/04/05 05:17:45;;;;;;;3.08;2.83;;;17.90;38.10;;;;;;6222126;23;20623;-71
2022/04/05 05:20:14;;;;;;;2.47;2.28;;;17.90;38.40;;;;;;6222524;23;20175;-71
2022/04/05 05:22:41;;;;;;;2.88;2.65;;;17.90;38.50;;;;;;6220318;23;20218;-71
2022/04/05 05:25:09;;;;;;;2.65;2.45;;;18.00;38.50;;;;;;6220703;23;20171;-71
2022/04/05 05:27:37;;;;;;;2.80;2.60;;;18.00;38.60;;;;;;6220511;23;20190;-71
2022/04/05 05:30:07;;;;;;;2.65;2.45;;;18.00;38.20;;;;;;6220483;23;20233;-71
2022/04/05 05:32:41;;;;;;;3.22;2.90;;;18.10;38.30;;;;;;6247358;22;20221;-71
2022/04/05 05:35:09;;;;;;;2.92;2.72;;;18.10;38.10;;;;;;6222508;23;20529;-71
2022/04/05 05:37:36;;;;;;;2.97;2.78;;;18.20;37.90;;;;;;6222689;23;20504;-71
2022/04/05 05:40:05;;;;;;;2.70;2.50;;;18.20;37.70;;;;;;6248999;23;20186;-71
2022/04/05 05:42:31;;;;;;;2.70;2.50;;;18.20;37.90;;;;;;6222746;23;20195;-71
2022/04/05 05:44:59;;;;;;;2.67;2.40;;;18.20;37.70;;;;;;6249532;22;20190;-71
2022/04/05 05:47:26;;;;;;;2.90;2.60;;;18.30;37.80;;;;;;6222592;23;20232;-71
2022/04/05 05:49:55;;;;;;;3.17;2.88;;;18.30;37.70;;;;;;6206555;22;20227;-73
2022/04/05 05:52:22;;;;;;;2.85;2.65;;;18.30;37.60;;;;;;6192887;23;20245;-73
2022/04/05 05:54:50;;;;;;;3.05;2.85;;;18.30;37.50;;;;;;6219549;23;20167;-72
2022/04/05 05:57:17;;;;;;;2.83;2.60;;;18.30;37.50;;;;;;6219563;23;20183;-72
2022/04/05 05:59:45;;;;;;;3.42;2.75;;;18.30;37.50;;;;;;6193702;23;20638;-72
2022/04/05 06:02:12;;;;;;;3.72;2.85;;;18.30;37.40;;;;;;6220198;23;20191;-73
2022/04/05 06:04:39;;;;;;;3.05;2.83;;;18.40;38.00;;;;;;6193747;23;20179;-72
2022/04/05 06:07:07;;;;;;;2.83;2.63;;;18.40;37.40;;;;;;6192856;23;20179;-72
2022/04/05 06:09:35;;;;;;;2.75;2.55;;;18.40;37.40;;;;;;6219921;23;20172;-74
2022/04/05 06:12:03;;;;;;;2.60;2.40;;;18.30;37.40;;;;;;6193052;23;20175;-73
2022/04/05 06:14:30;;;;;;;2.70;2.50;;;18.30;37.40;;;;;;6193062;23;20179;-72
2022/04/05 06:16:57;;;;;;;2.50;2.30;;;18.40;37.50;;;;;;6193162;23;20180;-72
2022/04/05 06:19:24;;;;;;;3.33;2.60;;;18.40;37.60;;;;;;6193134;23;20174;-73
2022/04/05 06:21:51;;;;;;;3.03;2.72;;;18.30;37.40;;;;;;6192750;23;20281;-72
2022/04/05 06:24:20;;;;;;;2.83;2.63;;;18.30;37.40;;;;;;6192977;23;20278;-72
2022/04/05 06:26:47;;;;;;;2.65;2.45;;;18.30;37.50;;;;;;6194128;23;20214;-72
2022/04/05 06:29:15;;;;;;;2.80;2.60;;;18.40;37.60;;;;;;6193104;23;20246;-72
2022/04/05 06:31:41;;;;;;;3.20;2.67;;;18.40;37.50;;;;;;6192876;23;20176;-72
2022/04/05 06:34:09;;;;;;;3.03;2.80;;;18.40;37.50;;;;;;6192874;23;20278;-72
2022/04/05 06:36:36;;;;;;;2.75;2.55;;;18.40;37.50;;;;;;6195605;23;20171;-72
2022/04/05 06:39:03;;;;;;;3.03;2.72;;;18.40;37.50;;;;;;6202793;23;20171;-70
2022/04/05 06:41:32;;;;;;;3.75;2.70;;;18.40;37.50;;;;;;6229007;23;20154;-70
2022/04/05 06:43:59;;;;;;;2.85;2.53;;;18.40;37.30;;;;;;6206996;23;20589;-70
2022/04/05 06:46:27;;;;;;;2.92;2.72;;;18.40;37.40;;;;;;6227223;23;20206;-70
2022/04/05 06:48:55;;;;;;;2.70;2.50;;;18.40;37.90;;;;;;6193712;23;20195;-70
2022/04/05 06:51:22;;;;;;;2.70;2.50;;;18.40;37.20;;;;;;6194806;23;20313;-70
2022/04/05 06:53:49;;;;;;;3.20;2.50;;;18.50;37.30;;;;;;6195401;23;20192;-71
2022/04/05 06:56:16;;;;;;;2.75;2.55;;;18.50;37.40;;;;;;6194162;23;20202;-70
2022/04/05 06:58:45;;;;;;;3.13;2.80;;;18.50;37.80;;;;;;6194516;23;20167;-70
2022/04/05 07:01:12;;;;;;;2.80;2.50;;;18.50;37.40;;;;;;6220833;23;20163;-70
2022/04/05 07:03:39;;;;;;;3.47;2.60;;;18.50;37.20;;;;;;6222010;23;20217;-70
2022/04/05 07:06:06;;;;;;;3.10;2.80;;;18.50;37.20;;;;;;6194062;23;20286;-71
2022/04/05 07:08:33;;;;;;;2.75;2.55;;;18.50;37.30;;;;;;6220470;23;20187;-71
2022/04/05 07:11:00;;;;;;;4.35;2.50;;;18.50;37.20;;;;;;6193397;23;20199;-71
2022/04/05 07:13:27;;;;;;;3.20;2.90;;;18.50;37.20;;;;;;6219728;23;20187;-71
2022/04/05 07:15:55;;;;;;;2.78;2.58;;;18.50;37.10;;;;;;6193421;23;20258;-71
2022/04/05 07:18:23;;;;;;;2.60;2.40;;;18.60;37.10;;;;;;6220601;23;20159;-71
2022/04/05 07:20:50;;;;;;;2.92;2.72;;;18.60;37.10;;;;;;6193291;23;20221;-71
2022/04/05 07:23:17;;;;;;;2.85;2.53;;;18.60;37.10;;;;;;6193151;23;20705;-71
2022/04/05 07:25:45;;;;;;;2.85;2.65;;;18.60;37.20;;;;;;6192157;23;20167;-71
2022/04/05 07:28:12;;;;;;;2.65;2.45;;;18.60;37.10;;;;;;6191896;23;20199;-71
2022/04/05 07:30:39;;;;;;;2.83;2.63;;;18.60;37.00;;;;;;6192401;23;20172;-71
2022/04/05 07:33:08;;;;;;;2.53;2.33;;;18.60;36.90;;;;;;6191617;23;20200;-71
2022/04/05 07:35:36;;;;;;;2.72;2.50;;;18.60;36.90;;;;;;6191333;23;20262;-71
2022/04/05 07:38:03;;;;;;;3.00;2.70;;;18.60;36.80;;;;;;6191352;23;20195;-71
2022/04/05 07:40:47;;;;;;;2.60;2.40;;;18.60;37.00;;;;;;6191924;23;20627;-71
2022/04/05 07:43:15;;;;;;;2.78;2.17;;;18.60;37.00;;;;;;6191895;23;20267;-71
2022/04/05 07:45:42;;;;;;;2.63;2.42;;;18.60;37.00;;;;;;6191704;23;20174;-71
2022/04/05 07:48:11;;;;;;;2.72;2.47;;;18.60;36.80;;;;;;6217610;23;20214;-71
2022/04/05 07:50:38;;;;;;;2.85;2.65;;;18.70;36.80;;;;;;6191474;23;20602;-71
2022/04/05 07:53:05;;;;;;;2.65;2.45;;;18.70;36.90;;;;;;6191629;23;20273;-71
2022/04/05 07:55:32;;;;;;;2.90;2.70;;;18.70;36.80;;;;;;6192068;23;20168;-71
2022/04/05 07:58:00;;;;;;;2.70;2.50;;;18.70;37.00;;;;;;6218021;23;20163;-71
2022/04/05 08:00:28;;;;;;;3.03;2.72;;;18.70;37.00;;;;;;6218389;23;20166;-71
2022/04/05 08:02:55;;;;;;;2.42;2.22;;;18.70;36.80;;;;;;6219094;23;20237;-71
2022/04/05 08:05:24;;;;;;;2.72;2.47;;;18.70;36.80;;;;;;6201377;23;20181;-71
2022/04/05 08:07:51;;;;;;;2.95;2.67;;;18.70;36.90;;;;;;6223758;23;20622;-71
2022/04/05 08:10:18;;;;;;;2.60;2.40;;;18.70;37.10;;;;;;6217859;23;20164;-71
2022/04/05 08:12:47;;;;;;;2.38;2.15;;;18.70;37.20;;;;;;6218465;23;20183;-70
2022/04/05 08:15:15;;;;;;;2.78;2.58;;;18.70;37.30;;;;;;6190730;23;20179;-71
2022/04/05 08:17:43;;;;;;;2.80;2.53;;;18.70;37.20;;;;;;6191221;23;20202;-71
2022/04/05 08:20:10;;;;;;;2.70;2.50;;;18.80;37.10;;;;;;6191091;23;20262;-71
2022/04/05 08:22:39;;;;;;;2.58;2.30;;;18.80;37.30;;;;;;6190629;23;20526;-71
2022/04/05 08:25:07;;;;;;;2.55;2.35;;;18.80;37.30;;;;;;6191095;23;20175;-69
2022/04/05 08:27:34;;;;;;;2.60;2.40;;;18.80;37.20;;;;;;6190810;23;20195;-71
2022/04/05 08:30:01;;;;;;;2.70;2.50;;;18.80;37.30;;;;;;6191228;23;20191;-71
2022/04/05 08:32:28;;;;;;;2.60;2.40;;;18.80;37.30;;;;;;6190787;23;20198;-71
2022/04/05 08:34:55;;;;;;;2.60;2.40;;;18.80;37.20;;;;;;6190371;23;20195;-71
2022/04/05 08:37:23;;;;;;;2.60;2.40;;;18.80;37.30;;;;;;6190359;23;20262;-71
2022/04/05 08:39:52;;;;;;;2.70;2.50;;;18.90;37.40;;;;;;6190787;23;20206;-71
2022/04/05 08:42:19;;;;;;;2.40;2.20;;;18.90;37.20;;;;;;6216961;23;20199;-71
2022/04/05 08:44:46;;;;;;;3.20;2.53;;;18.90;37.20;;;;;;6191288;23;20499;-71
2022/04/05 08:47:13;;;;;;;2.78;2.45;;;19.00;37.40;;;;;;6217299;23;20225;-71
2022/04/05 08:49:41;;;;;;;3.55;2.60;;;18.90;37.20;;;;;;6190497;23;20245;-71
2022/04/05 08:52:08;;;;;;;2.72;2.53;;;19.00;37.40;;;;;;6216752;23;20227;-71
2022/04/05 08:54:36;;;;;;;2.50;2.30;;;19.00;37.40;;;;;;6190491;23;20168;-71
2022/04/05 08:57:05;;;;;;;2.30;2.20;;;19.00;37.20;;;;;;6190936;23;20638;-71
2022/04/05 08:59:32;;;;;;;2.65;2.45;;;19.00;37.20;;;;;;6217238;23;20675;-71
2022/04/05 09:01:59;;;;;;;3.35;2.45;;;19.10;37.20;;;;;;6190866;23;20179;-72
2022/04/05 09:04:33;;;;;;;2.58;2.38;;;19.00;37.00;;;;;;6190713;23;20222;-71
2022/04/05 09:07:18;;;;;;;2.70;2.50;;;19.00;37.20;;;;;;6217633;23;20206;-71
2022/04/05 09:09:45;;;;;;;2.83;2.38;;;19.10;37.20;;;;;;6192633;23;20187;-71
2022/04/05 09:12:18;;;;;;;2.35;2.17;;;19.10;37.30;;;;;;6192237;23;20178;-71
2022/04/05 09:14:45;;;;;;;2.60;2.40;;;19.20;37.20;;;;;;6192661;23;20218;-71
2022/04/05 09:17:13;;;;;;;2.70;2.50;;;19.20;37.60;;;;;;6192484;23;20175;-71
2022/04/05 09:19:42;;;;;;;2.60;2.40;;;19.20;37.70;;;;;;6219262;23;20643;-72
2022/04/05 09:22:09;;;;;;;2.53;2.33;;;19.20;37.10;;;;;;6219095;23;20187;-71
2022/04/05 09:24:37;;;;;;;3.00;2.70;;;19.20;37.00;;;;;;6219061;23;20241;-71
2022/04/05 09:27:05;;;;;;;2.60;2.40;;;19.20;37.00;;;;;;6219081;23;20164;-71
2022/04/05 09:29:40;;;;;;;2.42;2.22;;;19.20;36.90;;;;;;6192365;23;20231;-71
2022/04/05 09:32:08;;;;;;;3.53;2.45;;;19.20;37.00;;;;;;6193204;23;20177;-71
2022/04/05 09:34:40;;;;;;;2.50;2.30;;;19.30;36.80;;;;;;6192372;23;20611;-71
2022/04/05 09:37:08;;;;;;;2.50;2.30;;;19.30;36.90;;;;;;6192254;23;20175;-71
2022/04/05 09:39:36;;;;;;;2.53;2.33;;;19.30;36.80;;;;;;6219150;23;20159;-71
2022/04/05 09:42:05;;;;;;;2.45;2.25;;;19.30;36.90;;;;;;6192593;23;20171;-71
2022/04/05 09:44:33;;;;;;;2.17;1.98;;;19.40;36.90;;;;;;6219309;23;20166;-71
2022/04/05 09:47:09;;;;;;;2.53;2.30;;;19.40;36.80;;;;;;6192702;23;20175;-71
2022/04/05 09:49:37;;;;;;;3.17;2.50;;;19.40;36.90;;;;;;6192693;23;20195;-71
2022/04/05 09:52:19;;;;;;;2.33;2.13;;;19.40;36.70;;;;;;6192824;23;20171;-71
2022/04/05 09:54:47;;;;;;;2.42;2.22;;;19.40;36.80;;;;;;6192693;23;20612;-71
2022/04/05 09:57:14;;;;;;;2.63;2.40;;;19.50;36.80;;;;;;6220436;23;20174;-71
2022/04/05 09:59:42;;;;;;;2.70;2.50;;;19.50;36.80;;;;;;6222271;23;20164;-71
2022/04/05 10:02:13;;;;;;;2.20;2.00;;;19.60;36.90;;;;;;6193197;23;20594;-72
2022/04/05 10:05:06;;;;;;;2.65;2.45;;;19.50;36.80;;;;;;6192525;23;20179;-71
2022/04/05 10:07:33;;;;;;;2.42;2.10;;;19.60;36.80;;;;;;6218656;23;20551;-71
2022/04/05 10:10:01;;;;;;;2.63;2.42;;;19.60;36.80;;;;;;6192132;23;20194;-71
2022/04/05 10:12:28;;;;;;;3.63;2.30;;;19.60;37.40;;;;;;6218537;23;20195;-71
2022/04/05 10:14:56;;;;;;;2.83;2.63;;;19.60;36.70;;;;;;6191914;23;20653;-71
2022/04/05 10:17:26;;;;;;;2.42;2.22;;;19.70;36.80;;;;;;6191627;23;20357;-71
2022/04/05 10:19:54;;;;;;;3.63;2.45;;;19.70;36.90;;;;;;6218838;23;20167;-71
2022/04/05 10:22:20;;;;;;;2.60;2.40;;;19.60;36.90;;;;;;6191655;23;20230;-71
2022/04/05 10:24:48;;;;;;;2.63;2.42;;;19.70;37.00;;;;;;6192234;23;20202;-71
2022/04/05 10:27:15;;;;;;;2.92;2.60;;;19.70;36.80;;;;;;6217974;23;20706;-71
2022/04/05 10:29:43;;;;;;;2.70;2.50;;;19.70;36.80;;;;;;6191631;23;20507;-71
2022/04/05 10:32:14;;;;;;;2.40;2.20;;;19.70;37.00;;;;;;6191444;23;20229;-71
2022/04/05 10:34:44;;;;;;;2.25;2.15;;;19.70;37.00;;;;;;6191622;23;20163;-71
2022/04/05 10:37:16;;;;;;;2.70;2.50;;;19.70;37.00;;;;;;6191540;23;20175;-71
2022/04/05 10:39:43;;;;;;;2.20;2.10;;;19.80;37.00;;;;;;6218048;23;20636;-71
2022/04/05 10:42:20;;;;;;;2.47;2.28;;;19.80;36.90;;;;;;6191535;23;20654;-71
2022/04/05 10:44:49;;;;;;;2.40;2.20;;;19.80;37.00;;;;;;6190955;23;20165;-71
2022/04/05 10:47:16;;;;;;;2.70;2.50;;;19.80;37.00;;;;;;6190902;23;20195;-71
2022/04/05 10:49:47;;;;;;;2.58;2.38;;;19.70;37.00;;;;;;6191171;23;20195;-71
2022/04/05 10:52:16;;;;;;;2.67;2.20;;;19.80;37.00;;;;;;6191514;23;20191;-71
2022/04/05 10:54:44;;;;;;;2.50;2.30;;;19.80;37.10;;;;;;6191778;23;20175;-71
2022/04/05 10:57:37;;;;;;;2.90;2.70;;;19.80;37.00;;;;;;6218670;23;20175;-71
2022/04/05 11:00:08;;;;;;;3.00;2.70;;;19.80;37.00;;;;;;6218489;23;20155;-71
2022/04/05 11:02:43;;;;;;;3.55;2.80;;;19.80;37.00;;;;;;6191258;23;20199;-71
2022/04/05 11:05:42;;;;;;;2.70;2.50;;;19.80;37.10;;;;;;6218472;23;20151;-71
2022/04/05 11:08:20;;;;;;;2.28;2.08;;;19.80;37.20;;;;;;6218772;23;20207;-71
2022/04/05 11:10:54;;;;;;;2.28;2.17;;;19.80;37.10;;;;;;6219856;23;20221;-71
2022/04/05 11:13:30;;;;;;;2.45;2.20;;;19.80;37.20;;;;;;6191141;23;20688;-71
2022/04/05 11:15:57;;;;;;;2.30;2.10;;;19.80;37.20;;;;;;6191435;23;20198;-71
2022/04/05 11:18:26;;;;;;;2.30;2.20;;;19.80;37.20;;;;;;6191132;23;20175;-71
2022/04/05 11:20:55;;;;;;;2.50;2.30;;;19.80;37.30;;;;;;6191279;23;20258;-71
2022/04/05 11:23:41;;;;;;;2.30;2.10;;;19.80;37.30;;;;;;6191888;23;20203;-71
2022/04/05 11:26:33;;;;;;;2.38;2.17;;;19.90;37.40;;;;;;6194952;23;20569;-71
2022/04/05 11:29:01;;;;;;;2.42;2.20;;;19.90;37.40;;;;;;6220873;23;20172;-71
2022/04/05 11:31:34;;;;;;;2.95;2.28;;;19.90;37.30;;;;;;6191447;23;20218;-71
2022/04/05 11:34:03;;;;;;;2.45;2.25;;;19.90;37.20;;;;;;6191628;23;20225;-71
2022/04/05 11:36:31;;;;;;;2.25;2.10;;;19.90;37.40;;;;;;6191474;23;20600;-71
2022/04/05 11:38:59;;;;;;;2.35;2.15;;;19.90;37.20;;;;;;6189897;23;20176;-71
2022/04/05 11:41:26;;;;;;;2.30;2.10;;;19.90;37.30;;;;;;6191300;23;20240;-71
2022/04/05 11:43:55;;;;;;;2.40;2.20;;;19.90;37.20;;;;;;6191166;23;20222;-71
2022/04/05 11:46:23;;;;;;;2.22;2.10;;;19.90;37.20;;;;;;6191190;23;20259;-71
2022/04/05 11:48:52;;;;;;;3.50;2.38;;;19.90;37.20;;;;;;6217907;23;20218;-71
2022/04/05 11:51:20;;;;;;;2.63;2.13;;;19.90;37.40;;;;;;6190960;23;20174;-71
2022/04/05 11:53:48;;;;;;;2.40;2.20;;;19.90;37.20;;;;;;6190893;23;20535;-71
2022/04/05 11:56:18;;;;;;;2.35;2.15;;;20.00;37.40;;;;;;6217250;23;20164;-71
2022/04/05 11:58:47;;;;;;;3.05;2.08;;;20.00;37.10;;;;;;6217088;23;20569;-71
2022/04/05 12:01:16;;;;;;;2.22;2.03;;;20.00;37.10;;;;;;6190393;23;20202;-71
2022/04/05 12:03:45;;;;;;;2.35;2.22;;;20.00;36.90;;;;;;6190750;23;20217;-71
2022/04/05 12:06:12;;;;;;;2.30;2.10;;;20.00;36.90;;;;;;6190443;23;20183;-71
2022/04/05 12:08:39;;;;;;;1.98;1.80;;;20.00;37.30;;;;;;6216895;23;20167;-71
2022/04/05 12:11:09;;;;;;;2.30;2.10;;;20.00;37.20;;;;;;6216903;23;20221;-71
2022/04/05 12:13:36;;;;;;;2.25;2.05;;;20.00;37.20;;;;;;6195295;22;20202;-63
2022/04/05 12:16:05;;;;;;;2.25;2.10;;;20.00;37.30;;;;;;6246742;23;20178;-63
2022/04/05 12:18:32;;;;;;;2.47;2.28;;;20.00;37.20;;;;;;6219829;23;20175;-63
2022/04/05 12:21:00;;;;;;;2.10;2.00;;;20.10;37.50;;;;;;6219786;23;20265;-62
2022/04/05 12:23:32;;;;;;;2.15;1.95;;;20.10;37.10;;;;;;6206111;23;20676;-62
2022/04/05 12:26:04;;;;;;;2.35;2.03;;;20.10;37.10;;;;;;6189500;23;20622;-62
2022/04/05 12:28:33;;;;;;;2.10;1.90;;;20.20;37.00;;;;;;6216063;23;20175;-63
2022/04/05 12:31:08;;;;;;;2.40;2.20;;;20.20;37.20;;;;;;6189374;23;20191;-62
2022/04/05 12:33:35;;;;;;;1.88;1.77;;;20.20;37.40;;;;;;6189865;23;20737;-62
2022/04/05 12:36:03;;;;;;;2.35;2.00;;;20.30;37.50;;;;;;6189458;23;20205;-63
2022/04/05 12:38:30;;;;;;;2.00;1.80;;;20.30;37.20;;;;;;6189503;23;20274;-63
2022/04/05 12:40:58;;;;;;;1.90;1.75;;;20.40;37.00;;;;;;6216500;23;20190;-62
2022/04/05 12:43:25;;;;;;;2.38;2.03;;;20.40;37.00;;;;;;6189135;23;20510;-62
2022/04/05 12:45:54;;;;;;;2.00;1.80;;;20.40;37.60;;;;;;6216563;23;20215;-62
2022/04/05 12:48:22;;;;;;;1.80;1.70;;;20.50;37.10;;;;;;6190645;23;20636;-62
2022/04/05 12:50:51;;;;;;;1.90;1.80;;;20.60;36.90;;;;;;6190297;23;20191;-62
2022/04/05 12:53:26;;;;;;;1.67;1.58;;;20.50;36.90;;;;;;6189525;23;20645;-62
2022/04/05 12:56:00;;;;;;;2.30;2.00;;;20.60;37.20;;;;;;6216349;23;20239;-62
2022/04/05 12:58:38;;;;;;;1.83;1.73;;;20.60;37.00;;;;;;6216126;23;20168;-62